createdAt,value
2017-09-20T00:01:52.531Z,144.63
2017-09-20T00:04:18.852Z,71.70
2017-09-20T00:06:45.129Z,80.50
2017-09-20T00:09:11.444Z,72.80
2017-09-20T00:11:37.758Z,56.87
2017-09-20T00:14:04.054Z,52.73
2017-09-20T00:16:30.356Z,59.93
2017-09-20T00:18:57.404Z,57.83
2017-09-20T00:21:23.716Z,53.03
2017-09-20T00:23:50.171Z,60.63
2017-09-20T00:26:17.191Z,66.47
2017-09-20T00:28:43.510Z,65.93
2017-09-20T00:31:09.854Z,57.27
2017-09-20T00:33:36.195Z,51.47
2017-09-20T00:36:02.656Z,53.80
2017-09-20T00:38:29.706Z,65.77
2017-09-20T00:40:56.225Z,54.23
2017-09-20T00:43:23.316Z,52.00
2017-09-20T00:45:49.760Z,52.10
2017-09-20T00:48:16.076Z,56.40
2017-09-20T00:50:42.437Z,55.10
2017-09-20T00:53:08.792Z,56.30
2017-09-20T00:55:35.989Z,60.30
2017-09-20T00:58:02.333Z,56.03
2017-09-20T01:00:28.659Z,53.63
2017-09-20T01:02:55.156Z,54.53
2017-09-20T01:05:22.194Z,50.97
2017-09-20T01:07:49.250Z,61.63
2017-09-20T01:10:16.320Z,60.63
2017-09-20T01:12:42.696Z,59.03
2017-09-20T01:15:08.984Z,69.00
2017-09-20T01:17:35.271Z,62.97
2017-09-20T01:20:02.312Z,79.87
2017-09-20T01:25:32.744Z,85.80
2017-09-20T01:27:59.033Z,69.30
2017-09-20T01:30:25.351Z,73.57
2017-09-20T01:32:51.684Z,73.10
2017-09-20T01:35:18.020Z,68.50
2017-09-20T01:37:44.350Z,69.73
2017-09-20T01:40:10.662Z,68.17
2017-09-20T01:42:36.959Z,70.50
2017-09-20T01:45:03.311Z,74.47
2017-09-20T01:47:30.351Z,71.60
2017-09-20T01:49:56.671Z,70.20
2017-09-20T01:52:22.972Z,74.37
2017-09-20T01:54:49.286Z,83.80
2017-09-20T01:57:15.657Z,76.23
2017-09-20T01:59:41.982Z,83.00
2017-09-20T02:02:08.256Z,69.50
2017-09-20T02:04:34.555Z,74.67
2017-09-20T02:07:00.921Z,102.40
2017-09-20T02:09:27.220Z,84.37
2017-09-20T02:11:53.516Z,87.83
2017-09-20T02:14:19.843Z,77.20
2017-09-20T02:16:46.334Z,75.63
2017-09-20T02:19:13.421Z,69.50
2017-09-20T02:21:39.701Z,66.63
2017-09-20T02:24:06.740Z,57.57
2017-09-20T02:26:33.772Z,63.67
2017-09-20T02:29:00.064Z,64.33
2017-09-20T02:31:26.693Z,69.10
2017-09-20T02:33:53.008Z,74.83
2017-09-20T02:36:20.011Z,74.97
2017-09-20T02:38:46.345Z,87.60
2017-09-20T02:41:12.709Z,83.90
2017-09-20T02:43:39.769Z,77.83
2017-09-20T02:46:06.101Z,77.03
2017-09-20T02:48:32.424Z,79.77
2017-09-20T02:50:59.077Z,80.40
2017-09-20T02:53:25.400Z,94.77
2017-09-20T02:55:51.748Z,91.97
2017-09-20T02:58:18.135Z,83.33
2017-09-20T03:00:45.206Z,74.63
2017-09-20T03:03:11.518Z,78.03
2017-09-20T03:05:38.595Z,81.87
2017-09-20T03:08:04.880Z,81.83
2017-09-20T03:10:31.197Z,83.13
2017-09-20T03:12:57.503Z,93.37
2017-09-20T03:15:23.828Z,98.10
2017-09-20T03:17:50.215Z,79.00
2017-09-20T03:20:17.326Z,73.37
2017-09-20T03:22:43.625Z,75.90
2017-09-20T03:25:10.034Z,68.83
2017-09-20T03:27:37.072Z,72.47
2017-09-20T03:30:04.184Z,77.17
2017-09-20T03:32:30.589Z,94.33
2017-09-20T03:34:56.906Z,105.33
2017-09-20T03:37:23.238Z,104.43
2017-09-20T03:39:49.571Z,91.00
2017-09-20T03:42:15.869Z,115.43
2017-09-20T03:44:43.152Z,107.70
2017-09-20T03:47:09.455Z,91.80
2017-09-20T03:49:36.644Z,116.10
2017-09-20T03:52:03.144Z,101.77
2017-09-20T03:54:30.180Z,116.50
2017-09-20T03:56:56.538Z,97.80
2017-09-20T03:59:22.881Z,105.30
2017-09-20T04:01:49.183Z,95.57
2017-09-20T04:04:15.500Z,113.67
2017-09-20T04:06:41.771Z,113.37
2017-09-20T04:09:08.075Z,109.07
2017-09-20T04:11:35.134Z,102.13
2017-09-20T04:14:01.436Z,102.63
2017-09-20T04:16:27.765Z,94.90
2017-09-20T04:18:54.055Z,86.17
2017-09-20T04:21:20.774Z,84.23
2017-09-20T04:23:47.085Z,76.27
2017-09-20T04:26:14.160Z,81.07
2017-09-20T04:28:40.500Z,71.63
2017-09-20T04:31:06.832Z,71.90
2017-09-20T04:33:33.149Z,76.60
2017-09-20T04:35:59.489Z,73.07
2017-09-20T04:38:25.809Z,69.80
2017-09-20T04:40:52.080Z,67.30
2017-09-20T04:43:18.400Z,77.80
2017-09-20T04:45:44.728Z,64.43
2017-09-20T04:48:11.029Z,61.80
2017-09-20T04:50:37.361Z,63.80
2017-09-20T04:53:03.694Z,61.13
2017-09-20T04:55:29.974Z,64.20
2017-09-20T04:57:56.461Z,64.60
2017-09-20T05:00:22.956Z,70.20
2017-09-20T05:02:50.080Z,61.20
2017-09-20T05:05:16.397Z,69.93
2017-09-20T05:07:42.774Z,66.10
2017-09-20T05:10:09.846Z,62.60
2017-09-20T05:12:36.177Z,69.50
2017-09-20T05:15:02.564Z,63.07
2017-09-20T05:17:28.948Z,69.00
2017-09-20T05:19:55.310Z,65.23
2017-09-20T05:22:21.643Z,71.77
2017-09-20T05:24:47.923Z,62.20
2017-09-20T05:27:14.239Z,75.77
2017-09-20T05:29:41.304Z,70.93
2017-09-20T05:32:07.586Z,64.10
2017-09-20T05:34:33.904Z,72.30
2017-09-20T05:37:00.437Z,61.10
2017-09-20T05:39:26.758Z,72.20
2017-09-20T05:41:53.268Z,63.93
2017-09-20T05:44:19.643Z,65.90
2017-09-20T05:46:45.945Z,65.40
2017-09-20T05:49:12.308Z,65.20
2017-09-20T05:51:38.661Z,68.60
2017-09-20T05:54:05.010Z,66.43
2017-09-20T05:56:31.345Z,61.70
2017-09-20T05:58:57.711Z,68.00
2017-09-20T06:01:24.144Z,67.87
2017-09-20T06:03:50.511Z,64.70
2017-09-20T06:06:17.528Z,63.13
2017-09-20T06:08:43.832Z,63.83
2017-09-20T06:11:10.159Z,56.13
2017-09-20T06:13:36.464Z,55.70
2017-09-20T06:16:03.544Z,66.57
2017-09-20T06:18:29.977Z,55.20
2017-09-20T06:20:56.298Z,64.80
2017-09-20T06:23:22.591Z,60.53
2017-09-20T06:25:49.849Z,60.13
2017-09-20T06:28:16.912Z,69.30
2017-09-20T06:30:43.208Z,71.40
2017-09-20T06:33:09.533Z,58.83
2017-09-20T06:35:37.285Z,59.00
2017-09-20T06:38:03.633Z,61.07
2017-09-20T06:40:30.885Z,65.70
2017-09-20T06:42:57.254Z,63.93
2017-09-20T06:45:23.541Z,65.27
2017-09-20T06:47:49.834Z,67.17
2017-09-20T06:50:16.145Z,83.50
2017-09-20T06:52:42.477Z,64.30
2017-09-20T06:55:08.993Z,71.90
2017-09-20T06:57:35.345Z,65.07
2017-09-20T07:00:01.906Z,63.13
2017-09-20T07:02:28.219Z,63.43
2017-09-20T07:04:55.292Z,56.47
2017-09-20T07:07:21.614Z,54.77
2017-09-20T07:09:48.105Z,51.43
2017-09-20T07:12:14.642Z,47.30
2017-09-20T07:14:41.006Z,58.17
2017-09-20T07:17:07.338Z,53.90
2017-09-20T07:19:33.669Z,46.73
2017-09-20T07:22:00.101Z,52.10
2017-09-20T07:24:26.400Z,53.33
2017-09-20T07:26:52.837Z,50.53
2017-09-20T07:29:19.921Z,58.13
2017-09-20T07:31:46.324Z,53.23
2017-09-20T07:34:12.636Z,51.53
2017-09-20T07:36:38.985Z,43.13
2017-09-20T07:39:05.281Z,48.27
2017-09-20T07:41:32.356Z,43.00
2017-09-20T07:43:58.657Z,42.40
2017-09-20T07:46:25.703Z,46.27
2017-09-20T07:48:52.810Z,42.50
2017-09-20T07:51:19.080Z,50.23
2017-09-20T07:53:46.373Z,46.53
2017-09-20T07:56:12.692Z,41.83
2017-09-20T07:58:39.043Z,46.43
2017-09-20T08:01:05.426Z,49.90
2017-09-20T08:03:32.502Z,42.40
2017-09-20T08:05:58.869Z,49.73
2017-09-20T08:08:25.202Z,44.53
2017-09-20T08:10:51.567Z,45.80
2017-09-20T08:13:18.619Z,46.83
2017-09-20T08:15:46.020Z,44.20
2017-09-20T08:18:12.386Z,40.97
2017-09-20T08:20:38.697Z,49.13
2017-09-20T08:23:05.189Z,42.60
2017-09-20T08:25:31.500Z,44.47
2017-09-20T08:27:58.604Z,41.73
2017-09-20T08:30:24.945Z,42.70
2017-09-20T08:32:51.348Z,41.40
2017-09-20T08:35:17.689Z,37.10
2017-09-20T08:37:44.034Z,45.87
2017-09-20T08:40:10.400Z,48.80
2017-09-20T08:42:37.461Z,41.67
2017-09-20T08:45:04.543Z,42.67
2017-09-20T08:47:30.840Z,44.30
2017-09-20T08:49:57.930Z,43.53
2017-09-20T08:52:24.301Z,42.77
2017-09-20T08:54:51.346Z,42.33
2017-09-20T08:57:18.581Z,40.40
2017-09-20T08:59:45.621Z,36.33
2017-09-20T09:02:11.928Z,40.57
2017-09-20T09:04:38.283Z,39.87
2017-09-20T09:07:04.617Z,43.50
2017-09-20T09:09:30.927Z,40.47
2017-09-20T09:11:57.237Z,40.20
2017-09-20T09:14:23.542Z,39.17
2017-09-20T09:16:50.609Z,39.03
2017-09-20T09:19:17.076Z,35.30
2017-09-20T09:21:43.372Z,39.87
2017-09-20T09:24:16.696Z,43.47
2017-09-20T09:26:43.039Z,38.60
2017-09-20T09:29:09.398Z,44.13
2017-09-20T09:31:36.447Z,37.80
2017-09-20T09:34:02.967Z,39.87
2017-09-20T09:36:30.204Z,35.57
2017-09-20T09:38:56.546Z,38.10
2017-09-20T09:41:22.852Z,32.90
2017-09-20T09:43:49.140Z,42.13
2017-09-20T09:46:15.453Z,41.53
2017-09-20T09:48:42.617Z,39.10
2017-09-20T09:51:08.939Z,41.53
2017-09-20T09:53:36.008Z,32.40
2017-09-20T09:56:02.450Z,38.63
2017-09-20T09:58:28.807Z,36.00
2017-09-20T10:00:55.112Z,35.43
2017-09-20T10:03:21.498Z,30.87
2017-09-20T10:05:48.600Z,29.23
2017-09-20T10:08:15.039Z,29.20
2017-09-20T10:10:41.376Z,26.60
2017-09-20T10:13:07.761Z,27.37
2017-09-20T10:15:34.784Z,26.80
2017-09-20T10:18:01.111Z,25.03
2017-09-20T10:20:27.405Z,25.60
2017-09-20T10:22:53.724Z,28.23
2017-09-20T10:25:20.052Z,26.73
2017-09-20T10:27:46.401Z,26.10
2017-09-20T10:30:12.733Z,26.20
2017-09-20T10:32:39.036Z,24.27
2017-09-20T10:35:05.340Z,31.30
2017-09-20T10:37:32.437Z,28.83
2017-09-20T10:39:58.773Z,30.43
2017-09-20T10:42:25.114Z,29.97
2017-09-20T10:44:51.404Z,31.33
2017-09-20T10:47:17.745Z,22.23
2017-09-20T10:49:44.051Z,29.13
2017-09-20T10:52:11.130Z,30.00
2017-09-20T10:54:37.472Z,27.43
2017-09-20T10:57:03.769Z,23.50
2017-09-20T10:59:30.094Z,25.10
2017-09-20T11:01:56.432Z,28.20
2017-09-20T11:04:22.748Z,26.83
2017-09-20T11:06:50.091Z,24.93
2017-09-20T11:09:16.415Z,28.33
2017-09-20T11:11:43.476Z,41.40
2017-09-20T11:14:10.537Z,28.10
2017-09-20T11:16:36.940Z,27.20
2017-09-20T11:19:04.638Z,24.97
2017-09-20T11:21:32.114Z,27.23
2017-09-20T11:23:58.393Z,32.43
2017-09-20T11:26:25.420Z,27.50
2017-09-20T11:28:51.746Z,26.83
2017-09-20T11:31:18.036Z,24.20
2017-09-20T11:33:44.561Z,30.77
2017-09-20T11:36:10.880Z,26.40
2017-09-20T11:38:37.990Z,31.70
2017-09-20T11:41:04.328Z,27.00
2017-09-20T11:43:31.408Z,22.13
2017-09-20T11:45:58.511Z,25.57
2017-09-20T11:48:24.875Z,22.90
2017-09-20T11:50:51.940Z,24.67
2017-09-20T11:53:18.255Z,24.57
2017-09-20T11:55:45.345Z,22.90
2017-09-20T11:58:11.627Z,21.27
2017-09-20T12:00:38.722Z,21.30
2017-09-20T12:03:05.047Z,19.50
2017-09-20T12:05:31.392Z,26.67
2017-09-20T12:07:57.716Z,23.63
2017-09-20T12:10:24.033Z,21.43
2017-09-20T12:12:50.336Z,24.43
2017-09-20T12:15:17.414Z,22.27
2017-09-20T12:17:43.917Z,22.07
2017-09-20T12:20:10.985Z,22.77
2017-09-20T12:22:37.330Z,26.83
2017-09-20T12:25:03.627Z,26.40
2017-09-20T12:27:30.939Z,26.53
2017-09-20T12:29:57.252Z,27.43
2017-09-20T12:32:23.565Z,28.10
2017-09-20T12:34:49.903Z,27.17
2017-09-20T12:37:16.194Z,30.87
2017-09-20T12:39:43.294Z,29.57
2017-09-20T12:42:09.596Z,29.40
2017-09-20T12:44:35.944Z,27.57
2017-09-20T12:47:02.300Z,33.43
2017-09-20T12:49:28.692Z,24.77
2017-09-20T12:51:55.038Z,24.73
2017-09-20T12:54:21.368Z,25.93
2017-09-20T12:56:47.715Z,26.77
2017-09-20T12:59:14.041Z,31.90
2017-09-20T13:01:40.501Z,29.40
2017-09-20T13:04:06.808Z,27.97
2017-09-20T13:06:33.099Z,38.40
2017-09-20T13:08:59.441Z,30.43
2017-09-20T13:11:25.734Z,27.63
2017-09-20T13:13:52.841Z,25.30
2017-09-20T13:16:19.172Z,27.43
2017-09-20T13:18:45.468Z,27.57
2017-09-20T13:21:11.812Z,29.30
2017-09-20T13:23:38.106Z,31.00
2017-09-20T13:26:05.160Z,27.83
2017-09-20T13:28:32.217Z,29.10
2017-09-20T13:30:58.631Z,36.70
2017-09-20T13:33:25.680Z,32.30
2017-09-20T13:35:52.740Z,25.93
2017-09-20T13:38:19.779Z,32.10
2017-09-20T13:40:46.869Z,29.67
2017-09-20T13:43:13.203Z,30.90
2017-09-20T13:45:39.480Z,26.97
2017-09-20T13:48:06.533Z,28.47
2017-09-20T13:50:33.591Z,28.93
2017-09-20T13:53:00.672Z,26.70
2017-09-20T13:55:26.995Z,27.37
2017-09-20T13:57:53.331Z,27.13
2017-09-20T14:00:19.749Z,25.57
2017-09-20T14:02:46.080Z,29.13
2017-09-20T14:05:12.384Z,28.10
2017-09-20T14:07:39.445Z,27.30
2017-09-20T14:10:05.773Z,34.63
2017-09-20T14:12:32.152Z,32.50
2017-09-20T14:14:58.448Z,29.90
2017-09-20T14:17:24.867Z,28.97
2017-09-20T14:19:51.717Z,37.43
2017-09-20T14:22:18.092Z,26.50
2017-09-20T14:24:44.485Z,31.33
2017-09-20T14:27:10.800Z,20.70
2017-09-20T14:29:37.107Z,18.37
2017-09-20T14:32:04.171Z,18.23
2017-09-20T14:34:31.223Z,20.97
2017-09-20T14:36:57.569Z,21.83
2017-09-20T14:39:23.903Z,21.93
2017-09-20T14:41:50.473Z,19.17
2017-09-20T14:44:16.788Z,20.07
2017-09-20T14:46:43.151Z,31.33
2017-09-20T14:49:12.601Z,20.60
2017-09-20T14:51:38.919Z,25.93
2017-09-20T14:54:05.266Z,21.20
2017-09-20T14:56:31.645Z,25.27
2017-09-20T14:58:58.765Z,26.20
2017-09-20T15:01:25.110Z,27.33
2017-09-20T15:03:51.448Z,48.27
2017-09-20T15:06:17.767Z,25.07
2017-09-20T15:08:44.090Z,22.80
2017-09-20T15:11:17.456Z,23.13
2017-09-20T15:13:43.789Z,20.40
2017-09-20T15:16:10.108Z,21.70
2017-09-20T15:18:36.461Z,19.20
2017-09-20T15:21:02.844Z,16.83
2017-09-20T15:23:29.225Z,15.60
2017-09-20T15:25:55.585Z,17.30
2017-09-20T15:28:21.898Z,15.53
2017-09-20T15:30:48.224Z,12.17
2017-09-20T15:33:14.587Z,16.10
2017-09-20T15:35:40.902Z,11.20
2017-09-20T15:38:07.235Z,16.73
2017-09-20T15:40:33.580Z,13.37
2017-09-20T15:43:00.808Z,9.37
2017-09-20T15:45:28.236Z,8.13
2017-09-20T15:47:54.517Z,10.13
2017-09-20T15:50:22.307Z,8.33
2017-09-20T15:52:49.411Z,6.70
2017-09-20T15:55:16.025Z,10.83
2017-09-20T15:57:44.567Z,8.88
2017-09-20T16:00:11.746Z,7.40
2017-09-20T16:02:38.151Z,4.67
2017-09-20T16:05:05.251Z,6.80
2017-09-20T16:07:33.308Z,7.80
2017-09-20T16:09:59.637Z,7.30
2017-09-20T16:12:26.000Z,5.30
2017-09-20T16:14:53.316Z,5.77
2017-09-20T16:17:19.678Z,6.37
2017-09-20T16:19:46.028Z,5.87
2017-09-20T16:22:12.348Z,12.90
2017-09-20T16:24:41.270Z,6.83
2017-09-20T16:27:08.493Z,10.47
2017-09-20T16:29:34.809Z,8.60
2017-09-20T16:32:03.472Z,8.63
2017-09-20T16:34:30.209Z,8.83
2017-09-20T16:36:59.093Z,8.80
2017-09-20T16:39:28.415Z,7.63
2017-09-20T16:41:54.788Z,9.63
2017-09-20T16:44:21.230Z,7.30
2017-09-20T16:46:48.313Z,9.00
2017-09-20T16:49:14.665Z,7.40
2017-09-20T16:51:41.055Z,8.83
2017-09-20T16:54:08.119Z,11.20
2017-09-20T16:56:34.489Z,10.77
2017-09-20T16:59:00.895Z,8.07
2017-09-20T17:01:27.332Z,12.60
2017-09-20T17:03:53.680Z,14.00
2017-09-20T17:06:20.041Z,10.70
2017-09-20T17:08:47.124Z,14.20
2017-09-20T17:11:13.452Z,11.53
2017-09-20T17:13:39.794Z,18.30
2017-09-20T17:16:06.120Z,11.73
2017-09-20T17:18:32.449Z,11.27
2017-09-20T17:20:58.841Z,14.47
2017-09-20T17:23:25.964Z,10.77
2017-09-20T17:25:52.583Z,12.20
2017-09-20T17:28:19.005Z,11.93
2017-09-20T17:30:48.678Z,15.20
2017-09-20T17:33:15.999Z,16.47
2017-09-20T17:35:43.501Z,17.07
2017-09-20T17:38:10.290Z,12.97
2017-09-20T17:40:36.783Z,12.20
2017-09-20T17:43:03.088Z,15.37
2017-09-20T17:45:29.568Z,15.07
2017-09-20T17:48:02.229Z,14.70
2017-09-20T17:50:29.234Z,24.13
2017-09-20T17:52:56.790Z,14.90
2017-09-20T17:55:29.182Z,15.93
2017-09-20T17:57:57.624Z,20.67
2017-09-20T18:00:24.274Z,16.97
2017-09-20T18:02:50.772Z,14.97
2017-09-20T18:05:17.218Z,21.50
2017-09-20T18:07:43.669Z,23.63
2017-09-20T18:10:10.094Z,21.63
2017-09-20T18:12:38.630Z,21.97
2017-09-20T18:15:05.246Z,22.10
2017-09-20T18:17:32.460Z,23.67
2017-09-20T18:19:58.950Z,28.73
2017-09-20T18:22:25.356Z,28.87
2017-09-20T18:24:51.694Z,28.67
2017-09-20T18:27:18.774Z,38.53
2017-09-20T18:29:45.454Z,27.60
2017-09-20T18:32:11.761Z,35.07
2017-09-20T18:34:38.089Z,33.83
2017-09-20T18:37:04.454Z,33.57
2017-09-20T18:39:30.830Z,36.10
2017-09-20T18:41:58.525Z,33.57
2017-09-20T18:44:26.794Z,36.23
2017-09-20T18:46:53.096Z,39.33
2017-09-20T18:49:19.393Z,33.67
2017-09-20T18:51:45.746Z,36.73
2017-09-20T18:54:12.857Z,41.07
2017-09-20T18:56:39.342Z,33.33
2017-09-20T18:59:05.705Z,45.30
2017-09-20T19:01:32.116Z,43.63
2017-09-20T19:03:58.443Z,37.40
2017-09-20T19:06:25.588Z,38.57
2017-09-20T19:08:51.918Z,45.37
2017-09-20T19:11:18.257Z,46.70
2017-09-20T19:13:44.548Z,45.17
2017-09-20T19:16:11.646Z,40.90
2017-09-20T19:18:37.979Z,38.23
2017-09-20T19:21:04.294Z,45.50
2017-09-20T19:23:30.650Z,38.97
2017-09-20T19:25:56.943Z,39.43
2017-09-20T19:28:23.339Z,36.17
2017-09-20T19:30:49.644Z,40.50
2017-09-20T19:33:16.002Z,37.60
2017-09-20T19:35:43.787Z,37.50
2017-09-20T19:38:10.876Z,37.37
2017-09-20T19:40:37.311Z,37.90
2017-09-20T19:43:03.702Z,32.63
2017-09-20T19:45:30.016Z,51.93
2017-09-20T19:47:57.124Z,34.93
2017-09-20T19:50:23.499Z,33.10
2017-09-20T19:52:50.712Z,32.90
2017-09-20T19:55:17.053Z,29.63
2017-09-20T19:57:43.409Z,29.80
2017-09-20T20:00:10.505Z,35.70
2017-09-20T20:02:36.877Z,37.53
2017-09-20T20:05:04.026Z,41.27
2017-09-20T20:07:30.364Z,33.03
2017-09-20T20:09:56.721Z,41.27
2017-09-20T20:12:23.038Z,34.07
2017-09-20T20:14:50.184Z,35.10
2017-09-20T20:17:17.266Z,33.47
2017-09-20T20:19:43.646Z,33.67
2017-09-20T20:22:10.037Z,36.93
2017-09-20T20:24:36.417Z,36.10
2017-09-20T20:27:02.768Z,37.80
2017-09-20T20:29:29.084Z,33.07
2017-09-20T20:31:56.156Z,35.63
2017-09-20T20:34:23.194Z,36.17
2017-09-20T20:36:49.552Z,34.80
2017-09-20T20:39:15.927Z,36.27
2017-09-20T20:41:42.277Z,31.27
2017-09-20T20:44:09.379Z,39.60
2017-09-20T20:46:35.749Z,31.57
2017-09-20T20:49:02.232Z,33.20
2017-09-20T20:51:28.607Z,37.57
2017-09-20T20:53:54.905Z,41.93
2017-09-20T20:56:21.242Z,38.97
2017-09-20T20:58:47.579Z,36.73
2017-09-20T21:01:13.930Z,30.53
2017-09-20T21:03:40.261Z,32.53
2017-09-20T21:06:06.708Z,32.17
2017-09-20T21:08:33.798Z,35.10
2017-09-20T21:11:00.085Z,39.27
2017-09-20T21:13:27.179Z,35.53
2017-09-20T21:15:53.529Z,33.30
2017-09-20T21:18:19.848Z,39.30
2017-09-20T21:20:46.157Z,37.43
2017-09-20T21:23:12.609Z,39.80
2017-09-20T21:25:38.960Z,39.20
2017-09-20T21:28:05.288Z,31.77
2017-09-20T21:30:31.625Z,33.27
2017-09-20T21:32:57.937Z,35.10
2017-09-20T21:35:24.292Z,36.73
2017-09-20T21:37:50.621Z,35.50
2017-09-20T21:40:16.972Z,35.97
2017-09-20T21:42:44.023Z,28.90
2017-09-20T21:45:11.077Z,42.13
2017-09-20T21:47:37.432Z,42.23
2017-09-20T21:50:03.761Z,34.57
2017-09-20T21:52:30.097Z,29.23
2017-09-20T21:54:56.400Z,32.43
2017-09-20T21:57:23.472Z,29.40
2017-09-20T21:59:49.920Z,35.43
2017-09-20T22:02:16.227Z,32.47
2017-09-20T22:04:42.592Z,36.97
2017-09-20T22:07:09.130Z,43.17
2017-09-20T22:09:35.473Z,36.40
2017-09-20T22:12:02.542Z,32.23
2017-09-20T22:14:29.577Z,33.47
2017-09-20T22:17:08.935Z,34.23
2017-09-20T22:19:48.261Z,31.87
2017-09-20T22:22:27.329Z,36.27
2017-09-20T22:25:05.877Z,35.20
2017-09-20T22:27:32.191Z,32.30
2017-09-20T22:29:58.553Z,37.23
2017-09-20T22:32:25.661Z,41.73
2017-09-20T22:34:51.949Z,32.13
2017-09-20T22:37:19.039Z,54.20
2017-09-20T22:39:45.483Z,36.33
2017-09-20T22:42:11.813Z,36.17
2017-09-20T22:44:38.191Z,33.43
2017-09-20T22:47:05.275Z,37.93
2017-09-20T22:49:31.616Z,35.40
2017-09-20T22:51:57.914Z,42.27
2017-09-20T22:54:24.282Z,35.60
2017-09-20T22:56:50.660Z,37.53
2017-09-20T22:59:17.684Z,41.07
2017-09-20T23:01:44.000Z,38.10
2017-09-20T23:04:10.288Z,44.87
2017-09-20T23:06:36.606Z,36.70
2017-09-20T23:09:03.685Z,43.67
2017-09-20T23:11:30.044Z,44.47
2017-09-20T23:13:56.350Z,46.30
2017-09-20T23:16:22.689Z,45.93
2017-09-20T23:18:48.996Z,42.30
2017-09-20T23:21:15.292Z,54.33
2017-09-20T23:23:42.500Z,51.10
2017-09-20T23:26:08.832Z,53.33
2017-09-20T23:28:35.239Z,46.40
2017-09-20T23:31:01.516Z,43.37
2017-09-20T23:33:29.030Z,41.77
2017-09-20T23:35:55.309Z,45.13
2017-09-20T23:38:21.602Z,53.30
2017-09-20T23:40:47.955Z,42.77
2017-09-20T23:43:14.249Z,51.43
2017-09-20T23:45:40.562Z,56.57
2017-09-20T23:48:06.842Z,51.13
2017-09-20T23:50:33.177Z,50.47
2017-09-20T23:52:59.496Z,46.13
2017-09-20T23:55:25.792Z,53.83
2017-09-20T23:57:52.091Z,59.17
